Terminal Aerodrome Forecast
Issued by NWS Corpus Christi, TX

Home | Current Version | Previous Version | Text Only | Print | Product List | Glossary On
Versions: 1 2 3 4 5 6 7 8 9 10 11 12
000
FTUS44 KCRP 020500
TAFCRP
TAF
KCRP 020540Z 0206/0306 15006KT P6SM FEW020 BKN150
     FM020900 VRB03KT P6SM VCSH BKN035
      TEMPO 0210/0214 TSRA OVC025CB
     FM021500 06008KT P6SM VCTS BKN035CB
     FM030100 11008KT P6SM SCT040=

USA.gov is the U.S. government's official web portal to all federal, state and local government web resources and services.